sensor_id;sensor_type;location;lat;lon;timestamp;P1;durP1;ratioP1;P2;durP2;ratioP2
66585;SDS011;53444;45.822;16.092;2023-04-01T00:01:23;7.28;;;4.60;;
66585;SDS011;53444;45.822;16.092;2023-04-01T00:03:50;9.70;;;5.43;;
66585;SDS011;53444;45.822;16.092;2023-04-01T00:06:17;7.88;;;4.80;;
66585;SDS011;53444;45.822;16.092;2023-04-01T00:08:46;8.50;;;5.65;;
66585;SDS011;53444;45.822;16.092;2023-04-01T00:11:13;9.68;;;5.60;;
66585;SDS011;53444;45.822;16.092;2023-04-01T00:13:40;10.70;;;6.03;;
66585;SDS011;53444;45.822;16.092;2023-04-01T00:16:07;10.43;;;5.70;;
66585;SDS011;53444;45.822;16.092;2023-04-01T00:18:34;8.88;;;5.07;;
66585;SDS011;53444;45.822;16.092;2023-04-01T00:21:00;8.07;;;5.43;;
66585;SDS011;53444;45.822;16.092;2023-04-01T00:23:27;9.50;;;5.85;;
66585;SDS011;53444;45.822;16.092;2023-04-01T00:25:55;10.18;;;6.13;;
66585;SDS011;53444;45.822;16.092;2023-04-01T00:28:22;11.77;;;6.15;;
66585;SDS011;53444;45.822;16.092;2023-04-01T00:30:48;11.70;;;6.45;;
66585;SDS011;53444;45.822;16.092;2023-04-01T00:33:15;10.60;;;6.50;;
66585;SDS011;53444;45.822;16.092;2023-04-01T00:35:42;10.40;;;6.28;;
66585;SDS011;53444;45.822;16.092;2023-04-01T00:38:09;13.95;;;6.82;;
66585;SDS011;53444;45.822;16.092;2023-04-01T00:40:37;15.57;;;7.78;;
66585;SDS011;53444;45.822;16.092;2023-04-01T00:43:10;12.57;;;7.57;;
66585;SDS011;53444;45.822;16.092;2023-04-01T00:45:39;13.10;;;8.43;;
66585;SDS011;53444;45.822;16.092;2023-04-01T00:48:08;18.83;;;9.20;;
66585;SDS011;53444;45.822;16.092;2023-04-01T00:50:38;13.90;;;9.23;;
66585;SDS011;53444;45.822;16.092;2023-04-01T00:53:07;16.75;;;9.90;;
66585;SDS011;53444;45.822;16.092;2023-04-01T00:55:35;14.02;;;9.07;;
66585;SDS011;53444;45.822;16.092;2023-04-01T00:58:08;15.00;;;8.82;;
66585;SDS011;53444;45.822;16.092;2023-04-01T01:00:40;13.77;;;8.27;;
66585;SDS011;53444;45.822;16.092;2023-04-01T01:03:08;13.40;;;8.50;;
66585;SDS011;53444;45.822;16.092;2023-04-01T01:05:38;13.77;;;8.40;;
66585;SDS011;53444;45.822;16.092;2023-04-01T01:08:17;11.77;;;7.18;;
66585;SDS011;53444;45.822;16.092;2023-04-01T01:10:52;10.13;;;6.03;;
66585;SDS011;53444;45.822;16.092;2023-04-01T01:13:21;12.50;;;6.38;;
66585;SDS011;53444;45.822;16.092;2023-04-01T01:15:59;10.27;;;6.03;;
66585;SDS011;53444;45.822;16.092;2023-04-01T01:18:31;10.25;;;6.40;;
66585;SDS011;53444;45.822;16.092;2023-04-01T01:21:08;10.93;;;5.03;;
66585;SDS011;53444;45.822;16.092;2023-04-01T01:24:05;9.60;;;5.25;;
66585;SDS011;53444;45.822;16.092;2023-04-01T01:26:57;8.52;;;4.97;;
66585;SDS011;53444;45.822;16.092;2023-04-01T01:29:43;7.22;;;4.63;;
66585;SDS011;53444;45.822;16.092;2023-04-01T01:32:25;7.70;;;4.90;;
66585;SDS011;53444;45.822;16.092;2023-04-01T01:35:15;7.88;;;4.78;;
66585;SDS011;53444;45.822;16.092;2023-04-01T01:37:46;6.00;;;4.10;;
66585;SDS011;53444;45.822;16.092;2023-04-01T01:40:15;7.20;;;4.25;;
66585;SDS011;53444;45.822;16.092;2023-04-01T01:42:43;7.78;;;4.32;;
66585;SDS011;53444;45.822;16.092;2023-04-01T01:45:13;7.18;;;3.80;;
66585;SDS011;53444;45.822;16.092;2023-04-01T01:47:43;6.45;;;4.15;;
66585;SDS011;53444;45.822;16.092;2023-04-01T01:50:12;6.60;;;4.07;;
66585;SDS011;53444;45.822;16.092;2023-04-01T01:52:41;5.85;;;2.83;;
66585;SDS011;53444;45.822;16.092;2023-04-01T01:55:23;4.10;;;2.25;;
66585;SDS011;53444;45.822;16.092;2023-04-01T01:57:53;4.82;;;2.38;;
66585;SDS011;53444;45.822;16.092;2023-04-01T02:00:24;3.65;;;2.05;;
66585;SDS011;53444;45.822;16.092;2023-04-01T02:02:51;4.05;;;2.22;;
66585;SDS011;53444;45.822;16.092;2023-04-01T02:05:21;4.78;;;2.13;;
66585;SDS011;53444;45.822;16.092;2023-04-01T02:07:51;6.47;;;2.60;;
66585;SDS011;53444;45.822;16.092;2023-04-01T02:10:22;3.15;;;2.03;;
66585;SDS011;53444;45.822;16.092;2023-04-01T02:12:51;5.75;;;2.55;;
66585;SDS011;53444;45.822;16.092;2023-04-01T02:15:22;5.82;;;2.22;;
66585;SDS011;53444;45.822;16.092;2023-04-01T02:17:55;3.10;;;2.20;;
66585;SDS011;53444;45.822;16.092;2023-04-01T02:20:24;4.05;;;2.20;;
66585;SDS011;53444;45.822;16.092;2023-04-01T02:22:54;4.38;;;2.10;;
66585;SDS011;53444;45.822;16.092;2023-04-01T02:25:25;3.28;;;2.00;;
66585;SDS011;53444;45.822;16.092;2023-04-01T02:27:53;4.70;;;2.40;;
66585;SDS011;53444;45.822;16.092;2023-04-01T02:30:22;2.90;;;2.10;;
66585;SDS011;53444;45.822;16.092;2023-04-01T02:32:50;3.10;;;1.95;;
66585;SDS011;53444;45.822;16.092;2023-04-01T02:35:17;4.35;;;2.30;;
66585;SDS011;53444;45.822;16.092;2023-04-01T02:37:45;4.90;;;2.70;;
66585;SDS011;53444;45.822;16.092;2023-04-01T02:40:14;4.28;;;2.70;;
66585;SDS011;53444;45.822;16.092;2023-04-01T02:42:42;4.97;;;3.08;;
66585;SDS011;53444;45.822;16.092;2023-04-01T02:45:09;4.18;;;2.85;;
66585;SDS011;53444;45.822;16.092;2023-04-01T02:47:37;2.92;;;2.17;;
66585;SDS011;53444;45.822;16.092;2023-04-01T02:50:04;2.95;;;1.70;;
66585;SDS011;53444;45.822;16.092;2023-04-01T02:52:32;2.67;;;1.33;;
66585;SDS011;53444;45.822;16.092;2023-04-01T02:55:00;3.53;;;1.48;;
66585;SDS011;53444;45.822;16.092;2023-04-01T02:57:26;3.53;;;1.52;;
66585;SDS011;53444;45.822;16.092;2023-04-01T02:59:54;2.95;;;1.90;;
66585;SDS011;53444;45.822;16.092;2023-04-01T03:02:20;3.45;;;2.00;;
66585;SDS011;53444;45.822;16.092;2023-04-01T03:04:47;3.30;;;1.55;;
66585;SDS011;53444;45.822;16.092;2023-04-01T03:07:13;2.90;;;1.40;;
66585;SDS011;53444;45.822;16.092;2023-04-01T03:09:40;3.88;;;1.95;;
66585;SDS011;53444;45.822;16.092;2023-04-01T03:12:08;2.53;;;1.48;;
66585;SDS011;53444;45.822;16.092;2023-04-01T03:14:35;3.40;;;2.00;;
66585;SDS011;53444;45.822;16.092;2023-04-01T03:17:01;4.18;;;2.28;;
66585;SDS011;53444;45.822;16.092;2023-04-01T03:19:28;3.80;;;2.30;;
66585;SDS011;53444;45.822;16.092;2023-04-01T03:21:55;2.90;;;2.20;;
66585;SDS011;53444;45.822;16.092;2023-04-01T03:24:22;4.68;;;2.60;;
66585;SDS011;53444;45.822;16.092;2023-04-01T03:26:48;5.28;;;2.60;;
66585;SDS011;53444;45.822;16.092;2023-04-01T03:29:16;7.15;;;3.80;;
66585;SDS011;53444;45.822;16.092;2023-04-01T03:31:43;6.88;;;3.70;;
66585;SDS011;53444;45.822;16.092;2023-04-01T03:34:10;6.13;;;3.28;;
66585;SDS011;53444;45.822;16.092;2023-04-01T03:36:36;4.82;;;2.90;;
66585;SDS011;53444;45.822;16.092;2023-04-01T03:39:03;4.68;;;2.65;;
66585;SDS011;53444;45.822;16.092;2023-04-01T03:41:31;3.78;;;2.17;;
66585;SDS011;53444;45.822;16.092;2023-04-01T03:43:58;3.90;;;2.60;;
66585;SDS011;53444;45.822;16.092;2023-04-01T03:46:26;3.60;;;2.13;;
66585;SDS011;53444;45.822;16.092;2023-04-01T03:48:53;4.47;;;2.13;;
66585;SDS011;53444;45.822;16.092;2023-04-01T03:51:19;3.88;;;2.05;;
66585;SDS011;53444;45.822;16.092;2023-04-01T03:53:46;3.95;;;2.20;;
66585;SDS011;53444;45.822;16.092;2023-04-01T03:56:14;3.83;;;2.03;;
66585;SDS011;53444;45.822;16.092;2023-04-01T03:58:41;3.67;;;1.98;;
66585;SDS011;53444;45.822;16.092;2023-04-01T04:01:15;3.95;;;2.15;;
66585;SDS011;53444;45.822;16.092;2023-04-01T04:03:45;5.97;;;2.50;;
66585;SDS011;53444;45.822;16.092;2023-04-01T04:06:12;4.18;;;2.38;;
66585;SDS011;53444;45.822;16.092;2023-04-01T04:08:39;3.40;;;2.30;;
66585;SDS011;53444;45.822;16.092;2023-04-01T04:11:06;4.30;;;2.67;;
66585;SDS011;53444;45.822;16.092;2023-04-01T04:13:33;4.13;;;2.42;;
66585;SDS011;53444;45.822;16.092;2023-04-01T04:16:00;4.00;;;2.40;;
66585;SDS011;53444;45.822;16.092;2023-04-01T04:18:27;5.90;;;3.22;;
66585;SDS011;53444;45.822;16.092;2023-04-01T04:20:55;5.75;;;3.10;;
66585;SDS011;53444;45.822;16.092;2023-04-01T04:23:22;5.10;;;3.60;;
66585;SDS011;53444;45.822;16.092;2023-04-01T04:25:55;5.68;;;3.53;;
66585;SDS011;53444;45.822;16.092;2023-04-01T04:28:23;6.40;;;3.28;;
66585;SDS011;53444;45.822;16.092;2023-04-01T04:30:50;5.50;;;3.03;;
66585;SDS011;53444;45.822;16.092;2023-04-01T04:33:17;4.07;;;3.08;;
66585;SDS011;53444;45.822;16.092;2023-04-01T04:35:43;4.55;;;2.97;;
66585;SDS011;53444;45.822;16.092;2023-04-01T04:38:12;5.97;;;3.13;;
66585;SDS011;53444;45.822;16.092;2023-04-01T04:40:38;6.32;;;2.88;;
66585;SDS011;53444;45.822;16.092;2023-04-01T04:43:06;5.40;;;2.28;;
66585;SDS011;53444;45.822;16.092;2023-04-01T04:45:33;3.05;;;2.10;;
66585;SDS011;53444;45.822;16.092;2023-04-01T04:48:00;3.55;;;2.20;;
66585;SDS011;53444;45.822;16.092;2023-04-01T04:50:26;3.55;;;2.10;;
66585;SDS011;53444;45.822;16.092;2023-04-01T04:52:53;5.13;;;1.98;;
66585;SDS011;53444;45.822;16.092;2023-04-01T04:55:21;4.57;;;2.22;;
66585;SDS011;53444;45.822;16.092;2023-04-01T04:57:48;3.78;;;2.00;;
66585;SDS011;53444;45.822;16.092;2023-04-01T05:00:15;4.05;;;2.13;;
66585;SDS011;53444;45.822;16.092;2023-04-01T05:02:42;4.72;;;2.25;;
66585;SDS011;53444;45.822;16.092;2023-04-01T05:05:08;4.10;;;2.10;;
66585;SDS011;53444;45.822;16.092;2023-04-01T05:07:35;3.30;;;1.70;;
66585;SDS011;53444;45.822;16.092;2023-04-01T05:10:02;3.53;;;2.28;;
66585;SDS011;53444;45.822;16.092;2023-04-01T05:12:31;2.88;;;2.03;;
66585;SDS011;53444;45.822;16.092;2023-04-01T05:15:02;5.07;;;2.50;;
66585;SDS011;53444;45.822;16.092;2023-04-01T05:17:29;3.78;;;2.42;;
66585;SDS011;53444;45.822;16.092;2023-04-01T05:19:56;4.30;;;2.50;;
66585;SDS011;53444;45.822;16.092;2023-04-01T05:22:22;5.13;;;2.10;;
66585;SDS011;53444;45.822;16.092;2023-04-01T05:24:49;5.20;;;2.47;;
66585;SDS011;53444;45.822;16.092;2023-04-01T05:27:16;13.85;;;7.30;;
66585;SDS011;53444;45.822;16.092;2023-04-01T05:29:44;13.43;;;7.05;;
66585;SDS011;53444;45.822;16.092;2023-04-01T05:32:11;6.75;;;4.20;;
66585;SDS011;53444;45.822;16.092;2023-04-01T05:34:37;3.88;;;2.60;;
66585;SDS011;53444;45.822;16.092;2023-04-01T05:37:04;4.18;;;2.63;;
66585;SDS011;53444;45.822;16.092;2023-04-01T05:39:35;7.78;;;5.20;;
66585;SDS011;53444;45.822;16.092;2023-04-01T05:42:02;9.43;;;5.45;;
66585;SDS011;53444;45.822;16.092;2023-04-01T05:44:29;11.15;;;7.07;;
66585;SDS011;53444;45.822;16.092;2023-04-01T05:46:57;7.40;;;5.00;;
66585;SDS011;53444;45.822;16.092;2023-04-01T05:49:24;6.13;;;4.13;;
66585;SDS011;53444;45.822;16.092;2023-04-01T05:51:51;4.78;;;3.25;;
66585;SDS011;53444;45.822;16.092;2023-04-01T05:54:18;17.45;;;9.13;;
66585;SDS011;53444;45.822;16.092;2023-04-01T05:56:44;10.05;;;6.07;;
66585;SDS011;53444;45.822;16.092;2023-04-01T05:59:11;9.15;;;5.28;;
66585;SDS011;53444;45.822;16.092;2023-04-01T06:01:39;13.90;;;6.53;;
66585;SDS011;53444;45.822;16.092;2023-04-01T06:04:09;8.15;;;4.88;;
66585;SDS011;53444;45.822;16.092;2023-04-01T06:06:39;16.38;;;8.65;;
66585;SDS011;53444;45.822;16.092;2023-04-01T06:09:07;25.45;;;11.43;;
66585;SDS011;53444;45.822;16.092;2023-04-01T06:11:41;24.55;;;11.48;;
66585;SDS011;53444;45.822;16.092;2023-04-01T06:14:19;10.68;;;7.10;;
66585;SDS011;53444;45.822;16.092;2023-04-01T06:16:58;10.70;;;7.65;;
66585;SDS011;53444;45.822;16.092;2023-04-01T06:19:41;9.98;;;6.43;;
66585;SDS011;53444;45.822;16.092;2023-04-01T06:22:28;13.88;;;7.32;;
66585;SDS011;53444;45.822;16.092;2023-04-01T06:25:29;13.65;;;7.30;;
66585;SDS011;53444;45.822;16.092;2023-04-01T06:28:08;14.32;;;7.75;;
66585;SDS011;53444;45.822;16.092;2023-04-01T06:31:02;12.90;;;8.18;;
66585;SDS011;53444;45.822;16.092;2023-04-01T06:33:43;12.98;;;7.97;;
66585;SDS011;53444;45.822;16.092;2023-04-01T06:36:26;13.80;;;8.15;;
66585;SDS011;53444;45.822;16.092;2023-04-01T06:44:59;11.60;;;7.20;;
66585;SDS011;53444;45.822;16.092;2023-04-01T06:47:38;13.40;;;6.97;;
66585;SDS011;53444;45.822;16.092;2023-04-01T06:50:17;9.90;;;6.25;;
66585;SDS011;53444;45.822;16.092;2023-04-01T06:52:53;11.30;;;7.32;;
66585;SDS011;53444;45.822;16.092;2023-04-01T06:55:26;8.25;;;4.90;;
66585;SDS011;53444;45.822;16.092;2023-04-01T06:57:58;6.30;;;3.95;;
66585;SDS011;53444;45.822;16.092;2023-04-01T07:00:27;7.90;;;3.70;;
66585;SDS011;53444;45.822;16.092;2023-04-01T07:03:00;6.35;;;3.90;;
66585;SDS011;53444;45.822;16.092;2023-04-01T07:05:32;4.25;;;2.88;;
66585;SDS011;53444;45.822;16.092;2023-04-01T07:08:02;6.07;;;3.55;;
66585;SDS011;53444;45.822;16.092;2023-04-01T07:10:33;6.25;;;2.80;;
66585;SDS011;53444;45.822;16.092;2023-04-01T07:13:06;4.78;;;2.50;;
66585;SDS011;53444;45.822;16.092;2023-04-01T07:15:40;6.15;;;3.22;;
66585;SDS011;53444;45.822;16.092;2023-04-01T07:18:11;4.57;;;2.70;;
66585;SDS011;53444;45.822;16.092;2023-04-01T07:20:41;6.32;;;3.00;;
66585;SDS011;53444;45.822;16.092;2023-04-01T07:23:15;4.65;;;2.55;;
66585;SDS011;53444;45.822;16.092;2023-04-01T07:25:47;3.38;;;2.20;;
66585;SDS011;53444;45.822;16.092;2023-04-01T07:28:18;2.92;;;2.00;;
66585;SDS011;53444;45.822;16.092;2023-04-01T07:30:48;5.20;;;2.58;;
66585;SDS011;53444;45.822;16.092;2023-04-01T07:33:20;3.42;;;2.33;;
66585;SDS011;53444;45.822;16.092;2023-04-01T07:35:53;5.35;;;2.90;;
66585;SDS011;53444;45.822;16.092;2023-04-01T07:38:26;3.83;;;2.22;;
66585;SDS011;53444;45.822;16.092;2023-04-01T07:41:03;3.92;;;2.42;;
66585;SDS011;53444;45.822;16.092;2023-04-01T07:43:45;5.13;;;2.75;;
66585;SDS011;53444;45.822;16.092;2023-04-01T07:46:22;7.68;;;3.70;;
66585;SDS011;53444;45.822;16.092;2023-04-01T07:49:01;8.45;;;3.63;;
66585;SDS011;53444;45.822;16.092;2023-04-01T07:51:34;5.00;;;2.72;;
66585;SDS011;53444;45.822;16.092;2023-04-01T07:54:06;6.68;;;2.70;;
66585;SDS011;53444;45.822;16.092;2023-04-01T07:56:40;5.20;;;3.28;;
66585;SDS011;53444;45.822;16.092;2023-04-01T07:59:14;4.35;;;2.88;;
66585;SDS011;53444;45.822;16.092;2023-04-01T08:01:49;4.25;;;2.58;;
66585;SDS011;53444;45.822;16.092;2023-04-01T08:04:23;3.65;;;2.33;;
66585;SDS011;53444;45.822;16.092;2023-04-01T08:06:59;5.30;;;2.40;;
66585;SDS011;53444;45.822;16.092;2023-04-01T08:09:37;5.60;;;2.40;;
66585;SDS011;53444;45.822;16.092;2023-04-01T08:12:17;4.38;;;1.83;;
66585;SDS011;53444;45.822;16.092;2023-04-01T08:14:53;2.92;;;1.63;;
66585;SDS011;53444;45.822;16.092;2023-04-01T08:17:31;3.90;;;2.05;;
66585;SDS011;53444;45.822;16.092;2023-04-01T08:20:14;3.97;;;2.03;;
66585;SDS011;53444;45.822;16.092;2023-04-01T08:22:50;3.10;;;1.50;;
66585;SDS011;53444;45.822;16.092;2023-04-01T08:25:22;2.22;;;1.50;;
66585;SDS011;53444;45.822;16.092;2023-04-01T08:27:53;4.85;;;1.60;;
66585;SDS011;53444;45.822;16.092;2023-04-01T08:30:23;2.30;;;1.40;;
66585;SDS011;53444;45.822;16.092;2023-04-01T08:32:52;2.45;;;1.60;;
66585;SDS011;53444;45.822;16.092;2023-04-01T08:35:26;3.17;;;1.80;;
66585;SDS011;53444;45.822;16.092;2023-04-01T08:37:57;3.00;;;1.73;;
66585;SDS011;53444;45.822;16.092;2023-04-01T08:40:57;2.88;;;2.03;;
66585;SDS011;53444;45.822;16.092;2023-04-01T08:43:32;3.80;;;2.03;;
66585;SDS011;53444;45.822;16.092;2023-04-01T08:46:14;3.90;;;2.30;;
66585;SDS011;53444;45.822;16.092;2023-04-01T08:49:08;3.05;;;1.70;;
66585;SDS011;53444;45.822;16.092;2023-04-01T08:54:49;2.20;;;1.42;;
66585;SDS011;53444;45.822;16.092;2023-04-01T08:57:35;3.35;;;1.88;;
66585;SDS011;53444;45.822;16.092;2023-04-01T09:00:15;1.83;;;1.23;;
66585;SDS011;53444;45.822;16.092;2023-04-01T09:02:57;2.30;;;1.40;;
66585;SDS011;53444;45.822;16.092;2023-04-01T09:08:52;2.45;;;1.23;;
66585;SDS011;53444;45.822;16.092;2023-04-01T09:11:45;1.83;;;1.10;;
66585;SDS011;53444;45.822;16.092;2023-04-01T09:14:37;4.00;;;2.20;;
66585;SDS011;53444;45.822;16.092;2023-04-01T09:20:33;3.33;;;1.20;;
66585;SDS011;53444;45.822;16.092;2023-04-01T09:26:13;1.70;;;0.93;;
66585;SDS011;53444;45.822;16.092;2023-04-01T09:28:55;1.38;;;1.00;;
66585;SDS011;53444;45.822;16.092;2023-04-01T09:34:53;3.33;;;1.33;;
66585;SDS011;53444;45.822;16.092;2023-04-01T09:37:21;2.38;;;1.10;;
66585;SDS011;53444;45.822;16.092;2023-04-01T09:40:09;2.42;;;1.00;;
66585;SDS011;53444;45.822;16.092;2023-04-01T09:42:43;1.67;;;1.00;;
66585;SDS011;53444;45.822;16.092;2023-04-01T09:45:16;2.78;;;1.10;;
66585;SDS011;53444;45.822;16.092;2023-04-01T09:48:04;2.35;;;0.88;;
66585;SDS011;53444;45.822;16.092;2023-04-01T09:50:42;1.42;;;0.82;;
66585;SDS011;53444;45.822;16.092;2023-04-01T09:53:27;1.80;;;1.33;;
66585;SDS011;53444;45.822;16.092;2023-04-01T09:56:05;1.60;;;1.00;;
66585;SDS011;53444;45.822;16.092;2023-04-01T10:14:37;1.55;;;1.17;;
66585;SDS011;53444;45.822;16.092;2023-04-01T10:32:46;1.77;;;1.00;;
66585;SDS011;53444;45.822;16.092;2023-04-01T10:35:29;2.00;;;1.20;;
66585;SDS011;53444;45.822;16.092;2023-04-01T10:38:27;2.42;;;1.30;;
66585;SDS011;53444;45.822;16.092;2023-04-01T10:47:19;2.22;;;1.00;;
66585;SDS011;53444;45.822;16.092;2023-04-01T10:50:16;2.53;;;1.10;;
66585;SDS011;53444;45.822;16.092;2023-04-01T10:53:05;2.60;;;1.05;;
66585;SDS011;53444;45.822;16.092;2023-04-01T10:59:25;2.67;;;1.13;;
66585;SDS011;53444;45.822;16.092;2023-04-01T11:02:08;1.27;;;0.70;;
66585;SDS011;53444;45.822;16.092;2023-04-01T11:05:20;2.25;;;1.02;;
66585;SDS011;53444;45.822;16.092;2023-04-01T11:08:11;2.08;;;1.20;;
66585;SDS011;53444;45.822;16.092;2023-04-01T11:17:10;1.70;;;1.08;;
66585;SDS011;53444;45.822;16.092;2023-04-01T11:22:56;2.10;;;0.90;;
66585;SDS011;53444;45.822;16.092;2023-04-01T11:25:54;3.13;;;0.80;;
66585;SDS011;53444;45.822;16.092;2023-04-01T11:28:50;1.40;;;1.05;;
66585;SDS011;53444;45.822;16.092;2023-04-01T11:31:46;2.20;;;1.00;;
66585;SDS011;53444;45.822;16.092;2023-04-01T11:34:31;1.40;;;0.80;;
66585;SDS011;53444;45.822;16.092;2023-04-01T11:37:10;1.80;;;1.20;;
66585;SDS011;53444;45.822;16.092;2023-04-01T11:39:54;1.83;;;1.00;;
66585;SDS011;53444;45.822;16.092;2023-04-01T11:42:30;2.08;;;1.00;;
66585;SDS011;53444;45.822;16.092;2023-04-01T11:45:12;2.45;;;1.00;;
66585;SDS011;53444;45.822;16.092;2023-04-01T11:47:50;1.40;;;0.98;;
66585;SDS011;53444;45.822;16.092;2023-04-01T11:50:42;1.77;;;0.90;;
66585;SDS011;53444;45.822;16.092;2023-04-01T11:53:23;1.33;;;0.97;;
66585;SDS011;53444;45.822;16.092;2023-04-01T11:55:58;2.58;;;1.10;;
66585;SDS011;53444;45.822;16.092;2023-04-01T11:58:42;2.47;;;1.10;;
66585;SDS011;53444;45.822;16.092;2023-04-01T12:01:25;1.10;;;1.00;;
66585;SDS011;53444;45.822;16.092;2023-04-01T12:04:09;2.33;;;1.00;;
66585;SDS011;53444;45.822;16.092;2023-04-01T12:06:59;2.27;;;1.40;;
66585;SDS011;53444;45.822;16.092;2023-04-01T12:09:33;2.08;;;1.50;;
66585;SDS011;53444;45.822;16.092;2023-04-01T12:12:10;2.58;;;1.02;;
66585;SDS011;53444;45.822;16.092;2023-04-01T12:14:44;1.40;;;0.98;;
66585;SDS011;53444;45.822;16.092;2023-04-01T12:17:26;1.92;;;1.10;;
66585;SDS011;53444;45.822;16.092;2023-04-01T12:19:59;1.53;;;0.80;;
66585;SDS011;53444;45.822;16.092;2023-04-01T12:22:43;1.02;;;0.82;;
66585;SDS011;53444;45.822;16.092;2023-04-01T12:25:19;2.67;;;1.27;;
66585;SDS011;53444;45.822;16.092;2023-04-01T12:28:01;2.72;;;1.20;;
66585;SDS011;53444;45.822;16.092;2023-04-01T12:30:42;2.30;;;1.20;;
66585;SDS011;53444;45.822;16.092;2023-04-01T12:33:26;1.23;;;0.90;;
66585;SDS011;53444;45.822;16.092;2023-04-01T12:36:07;1.98;;;1.50;;
66585;SDS011;53444;45.822;16.092;2023-04-01T12:38:47;1.27;;;1.10;;
66585;SDS011;53444;45.822;16.092;2023-04-01T12:41:23;1.88;;;1.27;;
66585;SDS011;53444;45.822;16.092;2023-04-01T12:46:56;1.90;;;1.60;;
66585;SDS011;53444;45.822;16.092;2023-04-01T12:49:40;2.85;;;1.50;;
66585;SDS011;53444;45.822;16.092;2023-04-01T12:52:30;1.50;;;1.10;;
66585;SDS011;53444;45.822;16.092;2023-04-01T12:58:30;1.60;;;1.10;;
66585;SDS011;53444;45.822;16.092;2023-04-01T13:04:30;1.58;;;1.23;;
66585;SDS011;53444;45.822;16.092;2023-04-01T13:07:28;3.90;;;1.45;;
66585;SDS011;53444;45.822;16.092;2023-04-01T13:10:20;2.25;;;1.58;;
66585;SDS011;53444;45.822;16.092;2023-04-01T13:13:03;3.55;;;1.73;;
66585;SDS011;53444;45.822;16.092;2023-04-01T13:15:46;4.23;;;1.33;;
66585;SDS011;53444;45.822;16.092;2023-04-01T13:18:18;3.72;;;2.30;;
66585;SDS011;53444;45.822;16.092;2023-04-01T13:20:53;3.33;;;2.30;;
66585;SDS011;53444;45.822;16.092;2023-04-01T13:23:33;7.22;;;5.53;;
66585;SDS011;53444;45.822;16.092;2023-04-01T13:26:12;2.75;;;1.90;;
66585;SDS011;53444;45.822;16.092;2023-04-01T13:28:46;2.23;;;1.50;;
66585;SDS011;53444;45.822;16.092;2023-04-01T13:31:22;2.03;;;1.55;;
66585;SDS011;53444;45.822;16.092;2023-04-01T13:33:59;1.98;;;1.52;;
66585;SDS011;53444;45.822;16.092;2023-04-01T13:36:36;1.60;;;1.20;;
66585;SDS011;53444;45.822;16.092;2023-04-01T13:39:15;2.88;;;1.70;;
66585;SDS011;53444;45.822;16.092;2023-04-01T13:42:05;1.47;;;1.20;;
66585;SDS011;53444;45.822;16.092;2023-04-01T13:44:41;1.45;;;1.13;;
66585;SDS011;53444;45.822;16.092;2023-04-01T13:47:30;1.92;;;1.25;;
66585;SDS011;53444;45.822;16.092;2023-04-01T13:50:25;1.17;;;0.85;;
66585;SDS011;53444;45.822;16.092;2023-04-01T13:53:02;1.40;;;1.10;;
66585;SDS011;53444;45.822;16.092;2023-04-01T13:55:44;1.20;;;0.90;;
66585;SDS011;53444;45.822;16.092;2023-04-01T13:58:24;1.88;;;1.20;;
66585;SDS011;53444;45.822;16.092;2023-04-01T14:01:10;2.10;;;1.25;;
66585;SDS011;53444;45.822;16.092;2023-04-01T14:03:48;2.72;;;1.95;;
66585;SDS011;53444;45.822;16.092;2023-04-01T14:06:47;1.80;;;1.35;;
66585;SDS011;53444;45.822;16.092;2023-04-01T14:09:33;1.13;;;1.03;;
66585;SDS011;53444;45.822;16.092;2023-04-01T14:12:13;3.25;;;1.55;;
66585;SDS011;53444;45.822;16.092;2023-04-01T14:14:53;3.53;;;1.60;;
66585;SDS011;53444;45.822;16.092;2023-04-01T14:17:39;1.70;;;1.35;;
66585;SDS011;53444;45.822;16.092;2023-04-01T14:20:18;3.58;;;1.95;;
66585;SDS011;53444;45.822;16.092;2023-04-01T14:26:16;3.72;;;1.67;;
66585;SDS011;53444;45.822;16.092;2023-04-01T14:29:11;2.33;;;1.13;;
66585;SDS011;53444;45.822;16.092;2023-04-01T14:31:51;2.10;;;1.50;;
66585;SDS011;53444;45.822;16.092;2023-04-01T14:34:33;3.10;;;1.70;;
66585;SDS011;53444;45.822;16.092;2023-04-01T14:37:19;3.13;;;1.90;;
66585;SDS011;53444;45.822;16.092;2023-04-01T14:40:02;4.15;;;1.65;;
66585;SDS011;53444;45.822;16.092;2023-04-01T14:42:59;2.10;;;1.17;;
66585;SDS011;53444;45.822;16.092;2023-04-01T14:48:37;2.80;;;1.60;;
66585;SDS011;53444;45.822;16.092;2023-04-01T14:51:10;2.30;;;1.20;;
66585;SDS011;53444;45.822;16.092;2023-04-01T14:53:43;1.70;;;1.40;;
66585;SDS011;53444;45.822;16.092;2023-04-01T14:59:07;1.90;;;1.17;;
66585;SDS011;53444;45.822;16.092;2023-04-01T15:01:37;1.73;;;1.60;;
66585;SDS011;53444;45.822;16.092;2023-04-01T15:04:24;1.40;;;1.03;;
66585;SDS011;53444;45.822;16.092;2023-04-01T15:07:08;2.97;;;1.30;;
66585;SDS011;53444;45.822;16.092;2023-04-01T15:09:48;2.25;;;1.33;;
66585;SDS011;53444;45.822;16.092;2023-04-01T15:12:23;1.42;;;1.23;;
66585;SDS011;53444;45.822;16.092;2023-04-01T15:14:59;1.60;;;1.17;;
66585;SDS011;53444;45.822;16.092;2023-04-01T15:17:48;1.77;;;1.40;;
66585;SDS011;53444;45.822;16.092;2023-04-01T15:20:29;2.72;;;1.60;;
66585;SDS011;53444;45.822;16.092;2023-04-01T15:23:23;1.92;;;1.25;;
66585;SDS011;53444;45.822;16.092;2023-04-01T15:26:08;2.25;;;1.60;;
66585;SDS011;53444;45.822;16.092;2023-04-01T15:28:47;2.38;;;1.75;;
66585;SDS011;53444;45.822;16.092;2023-04-01T15:31:22;2.53;;;1.97;;
66585;SDS011;53444;45.822;16.092;2023-04-01T15:34:00;2.35;;;1.75;;
66585;SDS011;53444;45.822;16.092;2023-04-01T15:36:37;1.60;;;1.27;;
66585;SDS011;53444;45.822;16.092;2023-04-01T15:39:13;1.83;;;0.90;;
66585;SDS011;53444;45.822;16.092;2023-04-01T15:41:43;3.55;;;1.50;;
66585;SDS011;53444;45.822;16.092;2023-04-01T15:44:37;2.60;;;1.53;;
66585;SDS011;53444;45.822;16.092;2023-04-01T15:47:25;2.15;;;1.25;;
66585;SDS011;53444;45.822;16.092;2023-04-01T15:50:13;3.33;;;1.70;;
66585;SDS011;53444;45.822;16.092;2023-04-01T15:52:55;2.13;;;1.40;;
66585;SDS011;53444;45.822;16.092;2023-04-01T15:55:31;4.05;;;2.40;;
66585;SDS011;53444;45.822;16.092;2023-04-01T16:00:57;5.30;;;2.75;;
66585;SDS011;53444;45.822;16.092;2023-04-01T16:03:36;3.83;;;1.70;;
66585;SDS011;53444;45.822;16.092;2023-04-01T16:09:17;4.30;;;2.50;;
66585;SDS011;53444;45.822;16.092;2023-04-01T16:12:04;2.90;;;1.60;;
66585;SDS011;53444;45.822;16.092;2023-04-01T16:14:42;3.47;;;1.90;;
66585;SDS011;53444;45.822;16.092;2023-04-01T16:17:30;4.40;;;2.17;;
66585;SDS011;53444;45.822;16.092;2023-04-01T16:20:12;5.03;;;2.40;;
66585;SDS011;53444;45.822;16.092;2023-04-01T16:22:45;9.57;;;2.80;;
66585;SDS011;53444;45.822;16.092;2023-04-01T16:25:21;4.27;;;2.30;;
66585;SDS011;53444;45.822;16.092;2023-04-01T16:28:02;6.47;;;2.80;;
66585;SDS011;53444;45.822;16.092;2023-04-01T16:30:40;3.60;;;2.10;;
66585;SDS011;53444;45.822;16.092;2023-04-01T16:33:12;4.72;;;2.47;;
66585;SDS011;53444;45.822;16.092;2023-04-01T16:35:46;4.40;;;1.95;;
66585;SDS011;53444;45.822;16.092;2023-04-01T16:38:16;5.30;;;2.07;;
66585;SDS011;53444;45.822;16.092;2023-04-01T16:40:52;4.70;;;2.03;;
66585;SDS011;53444;45.822;16.092;2023-04-01T16:43:28;6.47;;;2.20;;
66585;SDS011;53444;45.822;16.092;2023-04-01T16:46:20;7.65;;;3.45;;
66585;SDS011;53444;45.822;16.092;2023-04-01T16:51:59;8.03;;;4.43;;
66585;SDS011;53444;45.822;16.092;2023-04-01T16:54:39;7.25;;;3.80;;
66585;SDS011;53444;45.822;16.092;2023-04-01T16:57:14;13.30;;;8.20;;
66585;SDS011;53444;45.822;16.092;2023-04-01T16:59:47;10.68;;;5.40;;
66585;SDS011;53444;45.822;16.092;2023-04-01T17:02:23;6.70;;;3.03;;